Time,TemperatureF,DewpointF,PressureIn,WindDirection,WindDirectionDegrees,WindSpeedMPH,WindSpeedGustMPH,Humidity,HourlyPrecipIn,Conditions,Clouds,dailyrainin,SoftwareType,DateUTC
2013-11-30 00:00:00,9.3,7.2,30.67,NNE,24,0.0,0.0,91,0.00,,,0.00,Wunderground v.1.13,2013-11-30 05:00:00,
2013-11-30 00:30:00,8.1,6.0,30.67,NNE,24,0.0,0.0,91,0.00,,,0.00,Wunderground v.1.13,2013-11-30 05:30:00,
2013-11-30 01:00:00,8.5,6.9,30.68,NNE,24,0.0,0.0,93,0.00,,,0.00,Wunderground v.1.13,2013-11-30 06:00:00,
2013-11-30 02:00:00,8.8,7.0,30.69,NNE,29,0.0,0.0,92,0.00,,,0.00,Wunderground v.1.13,2013-11-30 07:00:00,
2013-11-30 03:00:00,5.3,3.0,30.70,NNE,29,0.0,0.0,90,0.00,,,0.00,Wunderground v.1.13,2013-11-30 08:00:00,
2013-11-30 03:30:00,6.1,4.7,30.70,NNE,29,0.0,0.0,94,0.00,,,0.00,Wunderground v.1.13,2013-11-30 08:30:00,
2013-11-30 04:30:00,5.2,2.4,30.71,NNE,29,0.0,0.0,88,0.00,,,0.00,Wunderground v.1.13,2013-11-30 09:30:00,
2013-11-30 05:00:00,3.4,1.1,30.71,NNE,29,0.0,0.0,90,0.00,,,0.00,Wunderground v.1.13,2013-11-30 10:00:00,
2013-11-30 05:30:00,5.2,3.4,30.72,NNE,29,0.0,1.0,92,0.00,,,0.00,Wunderground v.1.13,2013-11-30 10:30:00,
2013-11-30 06:00:00,6.4,4.1,30.73,NNE,23,0.0,2.0,90,0.00,,,0.00,Wunderground v.1.13,2013-11-30 11:00:00,
2013-11-30 06:30:00,3.9,0.9,30.74,NNE,29,0.0,0.0,87,0.00,,,0.00,Wunderground v.1.13,2013-11-30 11:30:00,
2013-11-30 07:30:00,1.8,-0.7,30.75,NNE,29,0.0,0.0,89,0.00,,,0.00,Wunderground v.1.13,2013-11-30 12:30:00,
2013-11-30 08:30:00,7.1,5.5,30.77,NNE,29,0.0,1.0,93,0.00,,,0.00,Wunderground v.1.13,2013-11-30 13:30:00,
2013-11-30 09:00:00,11.3,9.2,30.76,NNE,28,0.0,0.0,91,0.00,,,0.00,Wunderground v.1.13,2013-11-30 14:00:00,
2013-11-30 10:00:00,15.7,11.5,30.74,ENE,78,0.0,1.0,83,0.00,,,0.00,Wunderground v.1.13,2013-11-30 15:00:00,
2013-11-30 10:30:00,16.3,10.6,30.73,East,86,1.0,1.0,78,0.00,,,0.00,Wunderground v.1.13,2013-11-30 15:30:00,
2013-11-30 11:30:00,18.0,10.2,30.71,ENE,76,2.0,3.0,71,0.00,,,0.00,Wunderground v.1.13,2013-11-30 16:30:00,
2013-11-30 12:00:00,18.1,9.6,30.70,North,350,1.0,1.0,69,0.00,,,0.00,Wunderground v.1.13,2013-11-30 17:00:00,
2013-11-30 12:30:00,18.4,8.6,30.68,East,88,1.0,5.0,65,0.00,,,0.00,Wunderground v.1.13,2013-11-30 17:30:00,
2013-11-30 13:00:00,18.9,8.7,30.67,NNE,23,1.0,8.0,64,0.00,,,0.00,Wunderground v.1.13,2013-11-30 18:00:00,
2013-11-30 13:30:00,18.7,8.5,30.66,ENE,64,2.0,2.0,64,0.00,,,0.00,Wunderground v.1.13,2013-11-30 18:30:00,
2013-11-30 14:00:00,18.8,8.6,30.64,NE,39,1.0,1.0,64,0.00,,,0.00,Wunderground v.1.13,2013-11-30 19:00:00,
2013-11-30 15:00:00,17.8,10.3,30.63,ENE,57,0.0,0.0,72,0.00,,,0.00,Wunderground v.1.13,2013-11-30 20:00:00,
2013-11-30 15:30:00,17.1,10.5,30.62,ENE,57,0.0,0.0,75,0.00,,,0.00,Wunderground v.1.13,2013-11-30 20:30:00,
2013-11-30 16:00:00,15.6,10.0,30.61,ENE,57,0.0,0.0,78,0.00,,,0.00,Wunderground v.1.13,2013-11-30 21:00:00,
2013-11-30 16:30:00,14.6,10.6,30.60,ENE,57,0.0,0.0,84,0.00,,,0.00,Wunderground v.1.13,2013-11-30 21:30:00,
2013-11-30 17:00:00,14.3,10.4,30.60,NNE,32,0.0,0.0,84,0.00,,,0.00,Wunderground v.1.13,2013-11-30 22:00:00,
2013-11-30 17:30:00,14.3,10.6,30.59,NNE,32,0.0,0.0,85,0.00,,,0.00,Wunderground v.1.13,2013-11-30 22:30:00,
2013-11-30 18:00:00,14.6,10.6,30.57,NNE,32,0.0,0.0,84,0.00,,,0.00,Wunderground v.1.13,2013-11-30 23:00:00,
2013-11-30 18:30:00,14.7,11.3,30.56,NNE,32,0.0,0.0,86,0.00,,,0.00,Wunderground v.1.13,2013-11-30 23:30:00,
2013-11-30 19:00:00,14.4,11.2,30.55,NNE,32,0.0,0.0,87,0.00,,,0.00,Wunderground v.1.13,2013-12-01 00:00:00,
2013-11-30 19:30:00,14.9,11.5,30.54,NNE,32,0.0,0.0,86,0.00,,,0.00,Wunderground v.1.13,2013-12-01 00:30:00,
2013-11-30 20:00:00,16.0,11.5,30.53,NNW,333,0.0,0.0,82,0.00,,,0.00,Wunderground v.1.13,2013-12-01 01:00:00,
2013-11-30 20:30:00,16.1,11.6,30.52,NNW,333,0.0,0.0,82,0.00,,,0.00,Wunderground v.1.13,2013-12-01 01:30:00,
2013-11-30 21:00:00,16.0,12.3,30.50,NNW,333,0.0,0.0,85,0.00,,,0.00,Wunderground v.1.13,2013-12-01 02:00:00,
2013-11-30 21:30:00,16.7,11.9,30.48,NNW,336,1.0,1.0,81,0.00,,,0.00,Wunderground v.1.13,2013-12-01 02:30:00,
2013-11-30 22:00:00,17.2,12.4,30.48,NNW,334,1.0,1.0,81,0.00,,,0.00,Wunderground v.1.13,2013-12-01 03:00:00,
2013-11-30 22:30:00,17.8,12.7,30.47,NW,324,1.0,1.0,80,0.00,,,0.00,Wunderground v.1.13,2013-12-01 03:30:00,
2013-11-30 23:00:00,17.7,14.0,30.46,NNW,347,2.0,2.0,85,0.00,,,0.00,Wunderground v.1.13,2013-12-01 04:00:00,
2013-11-30 23:30:00,17.6,14.9,30.44,NNW,339,1.0,1.0,89,0.00,,,0.00,Wunderground v.1.13,2013-12-01 04:30:00,